createdAt,value
2023-01-22T00:00:01.225Z,-.88
2023-01-22T00:00:31.776Z,-.88
2023-01-22T00:01:04.916Z,-.88
2023-01-22T00:01:36.715Z,-.77
2023-01-22T00:01:59.976Z,-.88
2023-01-22T00:02:22.204Z,-.88
2023-01-22T00:02:56.618Z,-.88
2023-01-22T00:03:28.863Z,-.88
2023-01-22T00:04:00.672Z,-.88
2023-01-22T00:04:31.539Z,-.88
2023-01-22T00:05:05.563Z,-.88
2023-01-22T00:05:36.804Z,-.77
2023-01-22T00:05:59.456Z,-.77
2023-01-22T00:06:21.601Z,-.77
2023-01-22T00:06:56.565Z,-.77
2023-01-22T00:07:28.915Z,-.77
2023-01-22T00:08:00.837Z,-.77
2023-01-22T00:08:31.659Z,-.77
2023-01-22T00:09:05.947Z,-.77
2023-01-22T00:09:36.560Z,-.77
2023-01-22T00:09:59.300Z,-.77
2023-01-22T00:10:21.653Z,-.77
2023-01-22T00:10:56.643Z,-.88
2023-01-22T00:11:28.865Z,-.88
2023-01-22T00:12:04.213Z,-.88
2023-01-22T00:12:31.797Z,-.88
2023-01-22T00:13:06.568Z,-.88
2023-01-22T00:13:36.767Z,-.88
2023-01-22T00:13:59.968Z,-.88
2023-01-22T00:14:22.138Z,-.88
2023-01-22T00:14:59.142Z,-.88
2023-01-22T00:15:28.884Z,-.88
2023-01-22T00:16:00.774Z,-.88
2023-01-22T00:16:31.562Z,-.88
2023-01-22T00:17:05.143Z,-.88
2023-01-22T00:17:36.685Z,-.88
2023-01-22T00:17:59.363Z,-.88
2023-01-22T00:18:23.276Z,-.88
2023-01-22T00:18:56.696Z,-.88
2023-01-22T00:19:28.659Z,-.88
2023-01-22T00:20:00.851Z,-.88
2023-01-22T00:20:31.572Z,-.88
2023-01-22T00:21:04.880Z,-.88
2023-01-22T00:21:36.782Z,-.88
2023-01-22T00:21:59.855Z,-.88
2023-01-22T00:22:22.179Z,-.88
2023-01-22T00:22:56.953Z,-.88
2023-01-22T00:23:28.794Z,-.88
2023-01-22T00:24:00.735Z,-.88
2023-01-22T00:24:31.551Z,-.88
2023-01-22T00:25:04.616Z,-.88
2023-01-22T00:25:36.709Z,-.88
2023-01-22T00:26:00.328Z,-.88
2023-01-22T00:26:25.274Z,-.88
2023-01-22T00:26:56.744Z,-.88
2023-01-22T00:27:28.576Z,-.88
2023-01-22T00:28:04.161Z,-.88
2023-01-22T00:28:31.610Z,-.88
2023-01-22T00:29:04.862Z,-.88
2023-01-22T00:29:38.069Z,-.88
2023-01-22T00:30:01.249Z,-.88
2023-01-22T00:30:22.007Z,-1.00
2023-01-22T00:30:56.892Z,-.88
2023-01-22T00:31:28.739Z,-.88
2023-01-22T00:32:00.921Z,-.88
2023-01-22T00:32:31.595Z,-.88
2023-01-22T00:33:05.029Z,-.88
2023-01-22T00:33:37.178Z,-.88
2023-01-22T00:33:59.274Z,-.88
2023-01-22T00:34:21.670Z,-.88
2023-01-22T00:34:56.683Z,-.88
2023-01-22T00:35:28.688Z,-.88
2023-01-22T00:36:00.555Z,-.88
2023-01-22T00:36:31.669Z,-.88
2023-01-22T00:37:04.987Z,-.88
2023-01-22T00:37:37.110Z,-.88
2023-01-22T00:37:59.705Z,-.88
2023-01-22T00:38:22.478Z,-.88
2023-01-22T00:38:56.817Z,-1.00
2023-01-22T00:39:28.588Z,-1.00
2023-01-22T00:40:00.683Z,-1.00
2023-01-22T00:40:31.562Z,-1.00
2023-01-22T00:41:04.937Z,-.88
2023-01-22T00:41:36.568Z,-.88
2023-01-22T00:41:59.640Z,-.88
2023-01-22T00:42:21.970Z,-.88
2023-01-22T00:42:56.607Z,-.88
2023-01-22T00:43:28.949Z,-.88
2023-01-22T00:44:00.655Z,-.88
2023-01-22T00:44:31.540Z,-.88
2023-01-22T00:45:04.842Z,-.88
2023-01-22T00:45:36.709Z,-.88
2023-01-22T00:45:59.717Z,-.88
2023-01-22T00:46:22.031Z,-.88
2023-01-22T00:46:56.940Z,-.88
2023-01-22T00:47:28.649Z,-.88
2023-01-22T00:47:54.526Z,-.88
2023-01-22T00:48:31.837Z,-.88
2023-01-22T00:49:04.655Z,-.88
2023-01-22T00:49:36.712Z,-.88
2023-01-22T00:49:59.541Z,-.88
2023-01-22T00:50:21.874Z,-.88
2023-01-22T00:50:56.942Z,-.88
2023-01-22T00:51:30.358Z,-.88
2023-01-22T00:52:01.716Z,-.88
2023-01-22T00:52:32.070Z,-.88
2023-01-22T00:53:04.920Z,-.88
2023-01-22T00:53:36.667Z,-.88
2023-01-22T00:53:59.522Z,-.88
2023-01-22T00:54:22.582Z,-.88
2023-01-22T00:54:56.953Z,-.88
2023-01-22T00:55:28.972Z,-.88
2023-01-22T00:56:01.183Z,-.88
2023-01-22T00:56:32.440Z,-.88
2023-01-22T00:57:04.748Z,-.88
2023-01-22T00:57:36.825Z,-.88
2023-01-22T00:57:59.572Z,-.88
2023-01-22T00:58:21.868Z,-.88
2023-01-22T00:58:58.709Z,-.88
2023-01-22T00:59:29.566Z,-.88
2023-01-22T01:00:02.003Z,-.88
2023-01-22T01:00:31.853Z,-.88
2023-01-22T01:01:05.573Z,-.88
2023-01-22T01:01:36.671Z,-.88
2023-01-22T01:01:59.333Z,-.88
2023-01-22T01:02:22.364Z,-.88
2023-01-22T01:02:57.103Z,-.88
2023-01-22T01:03:29.070Z,-.88
2023-01-22T01:04:00.753Z,-.88
2023-01-22T01:04:31.689Z,-.88
2023-01-22T01:05:04.567Z,-.88
2023-01-22T01:05:39.403Z,-.88
2023-01-22T01:06:00.674Z,-.88
2023-01-22T01:06:23.911Z,-.88
2023-01-22T01:06:58.001Z,-.88
2023-01-22T01:07:28.721Z,-.88
2023-01-22T01:08:00.888Z,-.88
2023-01-22T01:08:31.951Z,-.88
2023-01-22T01:09:04.680Z,-.88
2023-01-22T01:09:37.175Z,-.88
2023-01-22T01:09:59.893Z,-.88
2023-01-22T01:10:22.429Z,-.88
2023-01-22T01:10:56.702Z,-.88
2023-01-22T01:11:29.110Z,-.88
2023-01-22T01:12:00.767Z,-.88
2023-01-22T01:12:32.206Z,-.88
2023-01-22T01:13:04.722Z,-.88
2023-01-22T01:13:37.184Z,-.88
2023-01-22T01:13:59.931Z,-.88
2023-01-22T01:14:22.980Z,-.88
2023-01-22T01:14:57.316Z,-.88
2023-01-22T01:15:28.795Z,-.88
2023-01-22T01:16:00.721Z,-.88
2023-01-22T01:16:31.726Z,-.88
2023-01-22T01:17:04.891Z,-.88
2023-01-22T01:17:38.213Z,-.88
2023-01-22T01:17:59.446Z,-.88
2023-01-22T01:18:21.759Z,-.88
2023-01-22T01:18:57.482Z,-.88
2023-01-22T01:19:29.632Z,-.88
2023-01-22T01:20:00.976Z,-.88
2023-01-22T01:20:31.838Z,-.88
2023-01-22T01:21:05.910Z,-.88
2023-01-22T01:21:37.828Z,-.88
2023-01-22T01:22:00.478Z,-.88
2023-01-22T01:22:23.122Z,-.88
2023-01-22T01:22:57.372Z,-.88
2023-01-22T01:23:29.068Z,-.88
2023-01-22T01:24:01.277Z,-.88
2023-01-22T01:24:31.723Z,-.88
2023-01-22T01:25:05.540Z,-.88
2023-01-22T01:25:36.537Z,-.88
2023-01-22T01:25:59.463Z,-.88
2023-01-22T01:26:22.544Z,-.88
2023-01-22T01:26:57.213Z,-.88
2023-01-22T01:27:30.030Z,-.88
2023-01-22T01:28:01.289Z,-.88
2023-01-22T01:28:32.259Z,-.88
2023-01-22T01:29:05.117Z,-.88
2023-01-22T01:29:37.898Z,-.88
2023-01-22T01:30:00.707Z,-.88
2023-01-22T01:30:23.423Z,-.88
2023-01-22T01:31:01.681Z,-.88
2023-01-22T01:31:25.476Z,-.88
2023-01-22T01:32:00.882Z,-.88
2023-01-22T01:32:31.901Z,-.88
2023-01-22T01:33:04.733Z,-.88
2023-01-22T01:33:36.635Z,-.88
2023-01-22T01:33:59.593Z,-.88
2023-01-22T01:34:21.838Z,-.88
2023-01-22T01:34:56.540Z,-.88
2023-01-22T01:35:28.985Z,-.88
2023-01-22T01:36:00.534Z,-.88
2023-01-22T01:36:47.525Z,-.88
2023-01-22T01:37:04.665Z,-.77
2023-01-22T01:37:37.042Z,-.88
2023-01-22T01:37:59.813Z,-.77
2023-01-22T01:38:22.368Z,-.77
2023-01-22T01:38:56.734Z,-.77
2023-01-22T01:39:28.671Z,-.77
2023-01-22T01:40:00.683Z,-.77
2023-01-22T01:40:31.642Z,-.77
2023-01-22T01:41:04.727Z,-.77
2023-01-22T01:41:36.721Z,-.77
2023-01-22T01:42:00.122Z,-.77
2023-01-22T01:42:22.855Z,-.77
2023-01-22T01:42:56.730Z,-.77
2023-01-22T01:43:28.530Z,-.77
2023-01-22T01:44:00.732Z,-.77
2023-01-22T01:44:31.668Z,-.77
2023-01-22T01:45:04.858Z,-.77
2023-01-22T01:45:36.536Z,-.77
2023-01-22T01:45:59.898Z,-.77
2023-01-22T01:46:22.233Z,-.77
2023-01-22T01:46:56.908Z,-.77
2023-01-22T01:47:28.720Z,-.77
2023-01-22T01:48:01.104Z,-.77
2023-01-22T01:48:31.589Z,-.77
2023-01-22T01:49:04.693Z,-.77
2023-01-22T01:49:36.893Z,-.77
2023-01-22T01:49:59.609Z,-.77
2023-01-22T01:50:21.979Z,-.77
2023-01-22T01:50:56.697Z,-.77
2023-01-22T01:51:28.667Z,-.77
2023-01-22T01:52:00.764Z,-.77
2023-01-22T01:52:31.640Z,-.77
2023-01-22T01:53:04.789Z,-.77
2023-01-22T01:53:36.676Z,-.77
2023-01-22T01:53:59.847Z,-.77
2023-01-22T01:54:21.988Z,-.77
2023-01-22T01:54:56.672Z,-.77
2023-01-22T01:55:28.571Z,-.77
2023-01-22T01:56:00.787Z,-.77
2023-01-22T01:56:33.066Z,-.77
2023-01-22T01:57:04.572Z,-.77
2023-01-22T01:57:36.568Z,-.77
2023-01-22T01:57:59.669Z,-.77
2023-01-22T01:58:22.271Z,-.77
2023-01-22T01:58:56.710Z,-.77
2023-01-22T01:59:28.588Z,-.77
2023-01-22T02:00:00.840Z,-.77
2023-01-22T02:00:31.630Z,-.77
2023-01-22T02:01:04.684Z,-.77
2023-01-22T02:01:36.568Z,-.77
2023-01-22T02:02:00.325Z,-.77
2023-01-22T02:02:23.284Z,-.77
2023-01-22T02:02:56.785Z,-.88
2023-01-22T02:03:28.701Z,-.77
2023-01-22T02:04:00.708Z,-.77
2023-01-22T02:04:31.575Z,-.88
2023-01-22T02:05:04.681Z,-.88
2023-01-22T02:05:36.779Z,-.88
2023-01-22T02:05:59.463Z,-.88
2023-01-22T02:06:23.296Z,-.88
2023-01-22T02:06:56.635Z,-.77
2023-01-22T02:07:28.675Z,-.77
2023-01-22T02:08:00.660Z,-.77
2023-01-22T02:08:31.691Z,-.77
2023-01-22T02:09:04.577Z,-.77
2023-01-22T02:09:36.748Z,-.77
2023-01-22T02:10:03.619Z,-.77
2023-01-22T02:10:24.046Z,-.77
2023-01-22T02:10:56.725Z,-.77
2023-01-22T02:11:28.883Z,-.77
2023-01-22T02:12:00.576Z,-.77
2023-01-22T02:12:31.657Z,-.77
2023-01-22T02:13:06.207Z,-.77
2023-01-22T02:13:36.789Z,-.77
2023-01-22T02:13:59.430Z,-.77
2023-01-22T02:14:21.827Z,-.77
2023-01-22T02:14:57.282Z,-.77
2023-01-22T02:15:28.694Z,-.77
2023-01-22T02:16:00.741Z,-.77
2023-01-22T02:16:31.585Z,-.77
2023-01-22T02:17:04.708Z,-.77
2023-01-22T02:17:36.664Z,-.77
2023-01-22T02:17:59.926Z,-.77
2023-01-22T02:18:23.634Z,-.77
2023-01-22T02:18:56.730Z,-.77
2023-01-22T02:19:28.877Z,-.77
2023-01-22T02:20:00.769Z,-.77
2023-01-22T02:20:31.602Z,-.77
2023-01-22T02:21:04.828Z,-.77
2023-01-22T02:21:36.710Z,-.77
2023-01-22T02:21:59.388Z,-.77
2023-01-22T02:22:21.715Z,-.77
2023-01-22T02:22:56.738Z,-.77
2023-01-22T02:23:28.915Z,-.77
2023-01-22T02:24:00.641Z,-.77
2023-01-22T02:24:31.825Z,-.77
2023-01-22T02:25:04.672Z,-.77
2023-01-22T02:25:37.218Z,-.77
2023-01-22T02:26:02.657Z,-.77
2023-01-22T02:26:40.569Z,-.77
2023-01-22T02:27:04.132Z,-.77
2023-01-22T02:27:26.489Z,-.77
2023-01-22T02:28:00.845Z,-.77
2023-01-22T02:28:31.782Z,-.77
2023-01-22T02:29:06.156Z,-.77
2023-01-22T02:29:36.549Z,-.77
2023-01-22T02:29:59.352Z,-.77
2023-01-22T02:30:21.741Z,-.77
2023-01-22T02:30:56.936Z,-.77
2023-01-22T02:31:28.718Z,-.77
2023-01-22T02:32:00.569Z,-.77
2023-01-22T02:32:31.627Z,-.77
2023-01-22T02:33:04.773Z,-.77
2023-01-22T02:33:36.848Z,-.77
2023-01-22T02:33:59.966Z,-.77
2023-01-22T02:34:22.142Z,-.77
2023-01-22T02:34:56.887Z,-.77
2023-01-22T02:35:28.552Z,-.77
2023-01-22T02:36:00.679Z,-.77
2023-01-22T02:36:31.754Z,-.77
2023-01-22T02:37:04.764Z,-.77
2023-01-22T02:37:36.560Z,-.77
2023-01-22T02:38:00.119Z,-.77
2023-01-22T02:38:22.360Z,-.77
2023-01-22T02:38:56.594Z,-.77
2023-01-22T02:39:28.732Z,-.77
2023-01-22T02:40:00.651Z,-.77
2023-01-22T02:40:31.699Z,-.77
2023-01-22T02:41:04.654Z,-.77
2023-01-22T02:41:36.833Z,-.77
2023-01-22T02:42:00.175Z,-.77
2023-01-22T02:42:22.492Z,-.77
2023-01-22T02:42:56.856Z,-.77
2023-01-22T02:43:28.747Z,-.77
2023-01-22T02:44:03.063Z,-.77
2023-01-22T02:44:31.601Z,-.77
2023-01-22T02:45:04.916Z,-.77
2023-01-22T02:45:36.843Z,-.77
2023-01-22T02:45:59.523Z,-.77
2023-01-22T02:46:22.370Z,-.77
2023-01-22T02:46:56.766Z,-.72
2023-01-22T02:47:28.676Z,-.77
2023-01-22T02:48:00.807Z,-.72
2023-01-22T02:48:31.725Z,-.72
2023-01-22T02:49:04.935Z,-.72
2023-01-22T02:49:36.553Z,-.72
2023-01-22T02:49:59.791Z,-.72
2023-01-22T02:50:22.047Z,-.72
2023-01-22T02:50:56.782Z,-.72
2023-01-22T02:51:29.093Z,-.72
2023-01-22T02:52:00.707Z,-.72
2023-01-22T02:52:31.615Z,-.72
2023-01-22T02:53:04.578Z,-.72
2023-01-22T02:53:36.659Z,-.72
2023-01-22T02:53:59.384Z,-.72
2023-01-22T02:54:24.509Z,-.72
2023-01-22T02:54:56.648Z,-.72
2023-01-22T02:55:29.414Z,-.72
2023-01-22T02:56:00.528Z,-.72
2023-01-22T02:56:31.822Z,-.72
2023-01-22T02:57:04.614Z,-.72
2023-01-22T02:57:36.723Z,-.72
2023-01-22T02:57:59.844Z,-.72
2023-01-22T02:58:22.502Z,-.72
2023-01-22T02:58:56.810Z,-.72
2023-01-22T02:59:29.896Z,-.72
2023-01-22T03:00:01.045Z,-.72
2023-01-22T03:00:31.815Z,-.72
2023-01-22T03:01:04.718Z,-.72
2023-01-22T03:01:36.602Z,-.72
2023-01-22T03:02:05.843Z,-.72
2023-01-22T03:02:26.590Z,-.72
2023-01-22T03:02:56.711Z,-.72
2023-01-22T03:03:30.662Z,-.72
2023-01-22T03:04:00.764Z,-.72
2023-01-22T03:04:31.637Z,-.72
2023-01-22T03:05:04.823Z,-.72
2023-01-22T03:05:36.730Z,-.72
2023-01-22T03:06:00.830Z,-.72
2023-01-22T03:06:23.178Z,-.72
2023-01-22T03:06:56.960Z,-.72
2023-01-22T03:07:30.813Z,-.72
2023-01-22T03:08:00.604Z,-.72
2023-01-22T03:08:31.721Z,-.72
2023-01-22T03:09:04.761Z,-.72
2023-01-22T03:09:36.668Z,-.72
2023-01-22T03:09:59.475Z,-.72
2023-01-22T03:10:21.899Z,-.72
2023-01-22T03:10:56.692Z,-.72
2023-01-22T03:11:32.213Z,-.77
2023-01-22T03:12:00.588Z,-.77
2023-01-22T03:12:31.578Z,-.77
2023-01-22T03:13:08.470Z,-.77
2023-01-22T03:13:36.971Z,-.77
2023-01-22T03:14:00.897Z,-.77
2023-01-22T03:14:22.311Z,-.72
2023-01-22T03:15:00.779Z,-.72
2023-01-22T03:15:23.054Z,-.72
2023-01-22T03:16:00.895Z,-.72
2023-01-22T03:16:32.044Z,-.72
2023-01-22T03:17:04.617Z,-.72
2023-01-22T03:17:36.887Z,-.72
2023-01-22T03:17:59.766Z,-.72
2023-01-22T03:18:22.481Z,-.72
2023-01-22T03:18:56.861Z,-.72
2023-01-22T03:19:28.635Z,-.72
2023-01-22T03:20:00.834Z,-.72
2023-01-22T03:20:32.370Z,-.72
2023-01-22T03:21:04.728Z,-.72
2023-01-22T03:21:36.511Z,-.72
2023-01-22T03:21:59.703Z,-.72
2023-01-22T03:22:22.003Z,-.72
2023-01-22T03:22:58.111Z,-.72
2023-01-22T03:23:28.669Z,-.72
2023-01-22T03:24:03.329Z,-.72
2023-01-22T03:24:37.363Z,-.72
2023-01-22T03:25:04.716Z,-.72
2023-01-22T03:25:36.950Z,-.72
2023-01-22T03:26:05.312Z,-.72
2023-01-22T03:26:40.859Z,-.72
2023-01-22T03:27:04.157Z,-.72
2023-01-22T03:27:26.562Z,-.72
2023-01-22T03:28:00.579Z,-.72
2023-01-22T03:28:33.663Z,-.72
2023-01-22T03:29:04.739Z,-.72
2023-01-22T03:29:36.695Z,-.72
2023-01-22T03:30:02.244Z,-.72
2023-01-22T03:30:25.117Z,-.72
2023-01-22T03:30:56.747Z,-.72
2023-01-22T03:31:28.841Z,-.72
2023-01-22T03:32:01.077Z,-.72
2023-01-22T03:32:33.983Z,-.72
2023-01-22T03:33:04.666Z,-.72
2023-01-22T03:33:36.646Z,-.72
2023-01-22T03:34:02.977Z,-.72
2023-01-22T03:34:25.259Z,-.72
2023-01-22T03:34:57.123Z,-.72
2023-01-22T03:35:29.099Z,-.72
2023-01-22T03:36:00.719Z,-.72
2023-01-22T03:36:31.707Z,-.72
2023-01-22T03:37:04.748Z,-.72
2023-01-22T03:37:39.154Z,-.72
2023-01-22T03:38:01.090Z,-.72
2023-01-22T03:38:21.972Z,-.72
2023-01-22T03:39:00.218Z,-.72
2023-01-22T03:39:28.559Z,-.72
2023-01-22T03:40:00.718Z,-.72
2023-01-22T03:40:31.749Z,-.72
2023-01-22T03:41:04.621Z,-.72
2023-01-22T03:41:36.733Z,-.72
2023-01-22T03:41:59.550Z,-.72
2023-01-22T03:42:21.970Z,-.72
2023-01-22T03:42:56.822Z,-.72
2023-01-22T03:43:28.694Z,-.72
2023-01-22T03:44:01.226Z,-.72
2023-01-22T03:44:31.598Z,-.72
2023-01-22T03:45:04.918Z,-.72
2023-01-22T03:45:36.691Z,-.72
2023-01-22T03:45:59.548Z,-.72
2023-01-22T03:46:21.738Z,-.72
2023-01-22T03:46:56.911Z,-.72
2023-01-22T03:47:28.669Z,-.72
2023-01-22T03:48:00.818Z,-.72
2023-01-22T03:48:31.733Z,-.72
2023-01-22T03:49:04.692Z,-.72
2023-01-22T03:49:36.622Z,-.72
2023-01-22T03:49:59.372Z,-.72
2023-01-22T03:50:21.889Z,-.72
2023-01-22T03:50:56.644Z,-.72
2023-01-22T03:51:28.607Z,-.72
2023-01-22T03:52:01.419Z,-.72
2023-01-22T03:52:31.605Z,-.72
2023-01-22T03:53:04.613Z,-.72
2023-01-22T03:53:36.733Z,-.72
2023-01-22T03:54:00.385Z,-.72
2023-01-22T03:54:22.684Z,-.72
2023-01-22T03:54:56.652Z,-.72
2023-01-22T03:55:28.876Z,-.72
2023-01-22T03:56:00.732Z,-.72
2023-01-22T03:56:31.689Z,-.72
2023-01-22T03:57:04.595Z,-.72
2023-01-22T03:57:37.117Z,-.72
2023-01-22T03:57:59.702Z,-.72
2023-01-22T03:58:22.100Z,-.72
2023-01-22T03:58:56.594Z,-.72
2023-01-22T03:59:29.083Z,-.72
2023-01-22T04:00:00.703Z,-.72
2023-01-22T04:00:31.698Z,-.72
2023-01-22T04:01:05.103Z,-.72
2023-01-22T04:01:37.902Z,-.72
2023-01-22T04:02:00.223Z,-.72
2023-01-22T04:02:22.082Z,-.72
2023-01-22T04:02:56.671Z,-.72
2023-01-22T04:03:28.987Z,-.72
2023-01-22T04:04:00.655Z,-.72
2023-01-22T04:04:31.621Z,-.72
2023-01-22T04:05:04.697Z,-.72
2023-01-22T04:05:40.626Z,-.72
2023-01-22T04:06:00.591Z,-.72
2023-01-22T04:06:22.823Z,-.61
2023-01-22T04:06:56.711Z,-.61
2023-01-22T04:07:28.706Z,-.61
2023-01-22T04:08:01.026Z,-.61
2023-01-22T04:08:31.972Z,-.61
2023-01-22T04:09:04.723Z,-.61
2023-01-22T04:09:38.809Z,-.61
2023-01-22T04:09:59.974Z,-.61
2023-01-22T04:10:22.255Z,-.61
2023-01-22T04:10:56.747Z,-.61
2023-01-22T04:11:28.574Z,-.61
2023-01-22T04:12:00.622Z,-.61
2023-01-22T04:12:34.120Z,-.61
2023-01-22T04:13:06.141Z,-.61
2023-01-22T04:13:42.836Z,-.61
2023-01-22T04:14:04.911Z,-.61
2023-01-22T04:14:24.187Z,-.61
2023-01-22T04:14:56.792Z,-.61
2023-01-22T04:15:28.791Z,-.61
2023-01-22T04:16:00.577Z,-.61
2023-01-22T04:16:31.704Z,-.61
2023-01-22T04:17:04.724Z,-.61
2023-01-22T04:17:36.723Z,-.61
2023-01-22T04:17:59.404Z,-.61
2023-01-22T04:18:21.800Z,-.61
2023-01-22T04:18:56.726Z,-.61
2023-01-22T04:19:30.216Z,-.61
2023-01-22T04:20:00.767Z,-.61
2023-01-22T04:20:31.815Z,-.61
2023-01-22T04:21:05.004Z,-.61
2023-01-22T04:21:36.666Z,-.61
2023-01-22T04:22:00.176Z,-.61
2023-01-22T04:22:22.364Z,-.61
2023-01-22T04:22:56.752Z,-.61
2023-01-22T04:23:28.790Z,-.61
2023-01-22T04:24:00.776Z,-.61
2023-01-22T04:24:32.227Z,-.61
2023-01-22T04:25:04.662Z,-.61
2023-01-22T04:25:36.591Z,-.61
2023-01-22T04:25:59.696Z,-.61
2023-01-22T04:26:21.937Z,-.61
2023-01-22T04:26:56.827Z,-.61
2023-01-22T04:27:28.702Z,-.61
2023-01-22T04:28:00.988Z,-.61
2023-01-22T04:28:31.714Z,-.61
2023-01-22T04:29:04.623Z,-.61
2023-01-22T04:29:36.607Z,-.61
2023-01-22T04:29:59.347Z,-.61
2023-01-22T04:30:21.729Z,-.61
2023-01-22T04:30:56.758Z,-.61
2023-01-22T04:31:28.760Z,-.61
2023-01-22T04:32:00.637Z,-.61
2023-01-22T04:32:31.619Z,-.61
2023-01-22T04:33:04.594Z,-.61
2023-01-22T04:33:36.687Z,-.61
2023-01-22T04:33:59.401Z,-.61
2023-01-22T04:34:21.795Z,-.61
2023-01-22T04:34:56.811Z,-.61
2023-01-22T04:35:28.661Z,-.61
2023-01-22T04:36:02.214Z,-.61
2023-01-22T04:36:31.760Z,-.61
2023-01-22T04:37:05.067Z,-.61
2023-01-22T04:37:36.802Z,-.61
2023-01-22T04:37:59.907Z,-.61
2023-01-22T04:38:22.323Z,-.61
2023-01-22T04:38:56.702Z,-.61
2023-01-22T04:39:28.637Z,-.61
2023-01-22T04:40:00.638Z,-.50
2023-01-22T04:40:31.709Z,-.50
2023-01-22T04:41:04.656Z,-.50
2023-01-22T04:41:36.595Z,-.61
2023-01-22T04:41:59.297Z,-.61
2023-01-22T04:42:21.686Z,-.61
2023-01-22T04:42:56.772Z,-.61
2023-01-22T04:43:28.674Z,-.61
2023-01-22T04:44:00.727Z,-.50
2023-01-22T04:44:31.738Z,-.50
2023-01-22T04:45:04.876Z,-.50
2023-01-22T04:45:36.583Z,-.61
2023-01-22T04:45:59.319Z,-.50
2023-01-22T04:46:21.767Z,-.50
2023-01-22T04:46:57.010Z,-.61
2023-01-22T04:47:30.379Z,-.61
2023-01-22T04:48:00.669Z,-.61
2023-01-22T04:48:31.675Z,-.61
2023-01-22T04:49:04.642Z,-.61
2023-01-22T04:49:36.711Z,-.61
2023-01-22T04:49:59.516Z,-.61
2023-01-22T04:50:21.815Z,-.61
2023-01-22T04:50:56.893Z,-.61
2023-01-22T04:51:29.046Z,-.61
2023-01-22T04:52:00.634Z,-.61
2023-01-22T04:52:31.671Z,-.61
2023-01-22T04:53:04.833Z,-.61
2023-01-22T04:53:36.910Z,-.61
2023-01-22T04:54:00.476Z,-.61
2023-01-22T04:54:22.394Z,-.61
2023-01-22T04:54:56.848Z,-.61
2023-01-22T04:55:28.648Z,-.61
2023-01-22T04:56:00.564Z,-.61
2023-01-22T04:56:31.600Z,-.61
2023-01-22T04:57:04.885Z,-.50
2023-01-22T04:57:36.903Z,-.61
2023-01-22T04:58:00.094Z,-.61
2023-01-22T04:58:22.187Z,-.61
2023-01-22T04:58:58.222Z,-.50
2023-01-22T04:59:28.908Z,-.50
2023-01-22T05:00:01.473Z,-.50
2023-01-22T05:00:31.782Z,-.50
2023-01-22T05:01:04.903Z,-.50
2023-01-22T05:01:36.901Z,-.50
2023-01-22T05:01:59.831Z,-.50
2023-01-22T05:02:22.107Z,-.50
2023-01-22T05:02:56.673Z,-.50
2023-01-22T05:03:29.125Z,-.50
2023-01-22T05:04:00.826Z,-.50
2023-01-22T05:04:31.738Z,-.50
2023-01-22T05:05:04.595Z,-.50
2023-01-22T05:05:36.765Z,-.50
2023-01-22T05:05:59.966Z,-.50
2023-01-22T05:06:22.823Z,-.50
2023-01-22T05:06:57.019Z,-.50
2023-01-22T05:07:28.783Z,-.50
2023-01-22T05:08:00.553Z,-.50
2023-01-22T05:08:31.955Z,-.50
2023-01-22T05:09:04.621Z,-.50
2023-01-22T05:09:36.717Z,-.50
2023-01-22T05:09:59.442Z,-.50
2023-01-22T05:10:21.930Z,-.50
2023-01-22T05:10:56.886Z,-.50
2023-01-22T05:11:28.667Z,-.50
2023-01-22T05:12:00.616Z,-.50
2023-01-22T05:12:32.024Z,-.50
2023-01-22T05:13:11.260Z,-.50
2023-01-22T05:13:36.571Z,-.50
2023-01-22T05:14:01.133Z,-.50
2023-01-22T05:14:22.016Z,-.50
2023-01-22T05:14:56.722Z,-.50
2023-01-22T05:15:28.656Z,-.50
2023-01-22T05:16:00.974Z,-.50
2023-01-22T05:16:31.651Z,-.50
2023-01-22T05:17:04.694Z,-.50
2023-01-22T05:17:36.613Z,-.50
2023-01-22T05:17:59.618Z,-.50
2023-01-22T05:18:21.973Z,-.50
2023-01-22T05:18:56.700Z,-.50
2023-01-22T05:19:28.827Z,-.50
2023-01-22T05:20:00.899Z,-.50
2023-01-22T05:20:31.662Z,-.50
2023-01-22T05:21:04.815Z,-.50
2023-01-22T05:21:36.929Z,-.50
2023-01-22T05:22:00.089Z,-.50
2023-01-22T05:22:22.186Z,-.50
2023-01-22T05:22:56.911Z,-.50
2023-01-22T05:23:28.769Z,-.50
2023-01-22T05:24:00.566Z,-.50
2023-01-22T05:24:31.668Z,-.50
2023-01-22T05:25:04.868Z,-.50
2023-01-22T05:25:37.295Z,-.50
2023-01-22T05:25:59.547Z,-.50
2023-01-22T05:26:21.934Z,-.61
2023-01-22T05:26:56.696Z,-.61
2023-01-22T05:27:28.632Z,-.61
2023-01-22T05:28:00.733Z,-.61
2023-01-22T05:28:31.775Z,-.61
2023-01-22T05:29:05.273Z,-.61
2023-01-22T05:29:36.621Z,-.61
2023-01-22T05:29:59.212Z,-.61
2023-01-22T05:30:21.870Z,-.61
2023-01-22T05:30:56.871Z,-.61
2023-01-22T05:31:28.792Z,-.61
2023-01-22T05:32:00.699Z,-.61
2023-01-22T05:32:31.641Z,-.61
2023-01-22T05:33:04.838Z,-.61
2023-01-22T05:33:37.360Z,-.61
2023-01-22T05:33:59.819Z,-.61
2023-01-22T05:34:22.127Z,-.50
2023-01-22T05:34:56.639Z,-.61
2023-01-22T05:35:28.799Z,-.61
2023-01-22T05:36:00.744Z,-.50
2023-01-22T05:36:31.654Z,-.50
2023-01-22T05:37:04.564Z,-.50
2023-01-22T05:37:36.703Z,-.50
2023-01-22T05:38:00.046Z,-.50
2023-01-22T05:38:22.197Z,-.50
2023-01-22T05:38:56.879Z,-.50
2023-01-22T05:39:28.980Z,-.50
2023-01-22T05:40:00.591Z,-.50
2023-01-22T05:40:31.605Z,-.50
2023-01-22T05:41:04.854Z,-.50
2023-01-22T05:41:36.680Z,-.50
2023-01-22T05:42:00.234Z,-.50
2023-01-22T05:42:22.567Z,-.50
2023-01-22T05:42:56.697Z,-.50
2023-01-22T05:43:28.642Z,-.50
2023-01-22T05:44:00.733Z,-.50
2023-01-22T05:44:33.519Z,-.50
2023-01-22T05:45:04.742Z,-.50
2023-01-22T05:45:36.684Z,-.50
2023-01-22T05:45:59.561Z,-.50
2023-01-22T05:46:22.354Z,-.50
2023-01-22T05:46:56.835Z,-.50
2023-01-22T05:47:28.587Z,-.50
2023-01-22T05:48:00.707Z,-.50
2023-01-22T05:48:31.785Z,-.50
2023-01-22T05:49:04.883Z,-.50
2023-01-22T05:49:36.698Z,-.50
2023-01-22T05:50:00.055Z,-.50
2023-01-22T05:50:22.339Z,-.61
2023-01-22T05:50:56.857Z,-.61
2023-01-22T05:51:31.338Z,-.61
2023-01-22T05:52:00.633Z,-.61
2023-01-22T05:52:31.808Z,-.61
2023-01-22T05:53:04.811Z,-.61
2023-01-22T05:53:37.258Z,-.61
2023-01-22T05:53:59.950Z,-.61
2023-01-22T05:54:22.278Z,-.61
2023-01-22T05:54:56.842Z,-.61
2023-01-22T05:55:28.727Z,-.61
2023-01-22T05:56:00.681Z,-.61
2023-01-22T05:56:31.616Z,-.61
2023-01-22T05:57:04.754Z,-.61
2023-01-22T05:57:36.630Z,-.61
2023-01-22T05:57:59.903Z,-.61
2023-01-22T05:58:22.269Z,-.27
2023-01-22T05:58:56.601Z,-.27
2023-01-22T05:59:28.582Z,-.27
2023-01-22T06:00:00.856Z,-.27
2023-01-22T06:00:32.585Z,-.27
2023-01-22T06:01:04.651Z,-.27
2023-01-22T06:01:36.651Z,-.27
2023-01-22T06:01:59.424Z,-.27
2023-01-22T06:02:21.660Z,-.27
2023-01-22T06:02:56.751Z,-.27
2023-01-22T06:03:29.034Z,-.27
2023-01-22T06:04:00.719Z,-.27
2023-01-22T06:04:31.630Z,-.27
2023-01-22T06:05:05.008Z,-.27
2023-01-22T06:05:37.007Z,-.27
2023-01-22T06:06:00.871Z,-.27
2023-01-22T06:06:23.088Z,-.27
2023-01-22T06:06:56.675Z,-.27
2023-01-22T06:07:28.743Z,-.27
2023-01-22T06:08:00.629Z,-.27
2023-01-22T06:08:33.419Z,-.27
2023-01-22T06:09:04.725Z,-.27
2023-01-22T06:09:36.836Z,-.27
2023-01-22T06:09:59.500Z,-.38
2023-01-22T06:10:22.043Z,-.38
2023-01-22T06:10:56.822Z,-.38
2023-01-22T06:11:28.661Z,-.38
2023-01-22T06:12:00.655Z,-.38
2023-01-22T06:12:31.685Z,-.27
2023-01-22T06:13:36.801Z,-.27
2023-01-22T06:14:01.013Z,-.27
2023-01-22T06:14:21.884Z,-.27
2023-01-22T06:14:56.734Z,-.38
2023-01-22T06:15:28.647Z,-.38
2023-01-22T06:16:00.699Z,-.38
2023-01-22T06:16:31.702Z,-.38
2023-01-22T06:17:04.599Z,-.38
2023-01-22T06:17:36.570Z,-.38
2023-01-22T06:17:59.395Z,-.38
2023-01-22T06:18:21.789Z,-.38
2023-01-22T06:18:57.224Z,-.38
2023-01-22T06:19:28.616Z,-.38
2023-01-22T06:20:00.708Z,-.38
2023-01-22T06:20:31.794Z,-.38
2023-01-22T06:21:05.102Z,-.38
2023-01-22T06:21:36.560Z,-.38
2023-01-22T06:21:59.740Z,-.38
2023-01-22T06:22:21.986Z,-.38
2023-01-22T06:22:57.091Z,-.38
2023-01-22T06:23:29.244Z,-.38
2023-01-22T06:24:00.649Z,-.38
2023-01-22T06:24:31.684Z,-.38
2023-01-22T06:25:04.925Z,-.38
2023-01-22T06:25:36.733Z,-.38
2023-01-22T06:25:59.813Z,-.38
2023-01-22T06:26:22.231Z,-.38
2023-01-22T06:26:56.633Z,-.38
2023-01-22T06:27:28.874Z,-.38
2023-01-22T06:28:00.694Z,-.38
2023-01-22T06:28:32.197Z,-.38
2023-01-22T06:29:05.006Z,-.38
2023-01-22T06:29:38.629Z,-.38
2023-01-22T06:29:59.198Z,-.38
2023-01-22T06:30:21.540Z,-.38
2023-01-22T06:30:57.126Z,-.38
2023-01-22T06:31:34.159Z,-.38
2023-01-22T06:32:00.828Z,-.38
2023-01-22T06:32:31.705Z,-.38
2023-01-22T06:33:04.613Z,-.38
2023-01-22T06:33:36.712Z,-.22
2023-01-22T06:34:00.205Z,-.38
2023-01-22T06:34:22.539Z,-.22
2023-01-22T06:34:57.227Z,-.22
2023-01-22T06:35:28.777Z,-.22
2023-01-22T06:36:00.851Z,-.22
2023-01-22T06:36:31.653Z,-.22
2023-01-22T06:37:04.994Z,-.22
2023-01-22T06:37:37.278Z,-.22
2023-01-22T06:38:00.001Z,-.22
2023-01-22T06:38:25.316Z,-.22
2023-01-22T06:38:56.921Z,-.22
2023-01-22T06:39:28.980Z,-.22